SWR5XH LEPA-LSZH
Flight info
| Callsign | SWR5XH |
|---|---|
| Flight time | 1h 23m |
| Altitude | 36000 |
| Route | MEROS DCT LAPIT DCT CHELY DCT LUMAS DCT MAXIR DCT LUSOL DCT BODRU DCT OKTET DCT IRMAR DCT KINES DCT VANAS DCT MOBLO DCT LAMUR DCT KORED N871 BERSU |
| Aircraft | A321/M-SDE2E3FGIRWXY/L |
Departure
| Time | 2026-05-06 17:02 |
|---|---|
| Airport | Palma de Mallorca Airport (LEPA) |
Arrival
| Time | 2026-05-06 18:26 |
|---|---|
| Airport | Zürich Airport (LSZH) |
| Time | Latitude | Longitude | Altitude | Speed | Heading |
|---|---|---|---|---|---|
| 2026-05-06 16:13 | 39.54552 | 2.73327 | 30 ft | 0 kts | 346° |
| 2026-05-06 16:17 | 39.54551 | 2.73327 | 30 ft | 0 kts | 346° |
| 2026-05-06 16:53 | 39.54532 | 2.73335 | 30 ft | 4 kts | 328° |
| 2026-05-06 16:53 | 39.54517 | 2.73357 | 30 ft | 4 kts | 271° |
| 2026-05-06 16:54 | 39.54521 | 2.73378 | 30 ft | 1 kts | 238° |
| 2026-05-06 16:54 | 39.54522 | 2.73382 | 30 ft | 0 kts | 238° |
| 2026-05-06 16:56 | 39.54507 | 2.73350 | 30 ft | 15 kts | 238° |
| 2026-05-06 16:56 | 39.54445 | 2.73229 | 30 ft | 14 kts | 221° |
| 2026-05-06 16:57 | 39.54360 | 2.73202 | 30 ft | 16 kts | 219° |
| 2026-05-06 16:57 | 39.54297 | 2.73092 | 30 ft | 14 kts | 238° |
| 2026-05-06 16:57 | 39.54253 | 2.72998 | 30 ft | 11 kts | 239° |
| 2026-05-06 16:57 | 39.54194 | 2.72931 | 30 ft | 14 kts | 186° |
| 2026-05-06 16:58 | 39.54161 | 2.72990 | 30 ft | 8 kts | 91° |
| 2026-05-06 16:58 | 39.54158 | 2.73055 | 30 ft | 7 kts | 96° |
| 2026-05-06 16:58 | 39.54146 | 2.73176 | 30 ft | 14 kts | 97° |
| 2026-05-06 16:58 | 39.54163 | 2.73247 | 30 ft | 0 kts | 59° |
| 2026-05-06 17:01 | 39.54163 | 2.73248 | 30 ft | 1 kts | 59° |
| 2026-05-06 17:02 | 39.54260 | 2.73454 | 30 ft | 61 kts | 58° |
| 2026-05-06 17:02 | 39.54598 | 2.74155 | 30 ft | 120 kts | 58° |
| 2026-05-06 17:02 | 39.55125 | 2.75264 | 43 ft | 164 kts | 56° |
| 2026-05-06 17:02 | 39.55705 | 2.76501 | 695 ft | 158 kts | 57° |
| 2026-05-06 17:03 | 39.56266 | 2.77732 | 1295 ft | 161 kts | 59° |
| 2026-05-06 17:03 | 39.56868 | 2.79058 | 1597 ft | 181 kts | 60° |
| 2026-05-06 17:03 | 39.57538 | 2.80539 | 1770 ft | 202 kts | 59° |
| 2026-05-06 17:03 | 39.58278 | 2.82168 | 2067 ft | 215 kts | 60° |
| 2026-05-06 17:04 | 39.59045 | 2.83853 | 2720 ft | 218 kts | 59° |
| 2026-05-06 17:04 | 39.59820 | 2.85553 | 3383 ft | 221 kts | 59° |
| 2026-05-06 17:04 | 39.60608 | 2.87285 | 4003 ft | 224 kts | 59° |
| 2026-05-06 17:04 | 39.61409 | 2.89042 | 4629 ft | 228 kts | 59° |
| 2026-05-06 17:05 | 39.62224 | 2.90829 | 5242 ft | 233 kts | 59° |
| 2026-05-06 17:05 | 39.63074 | 2.92749 | 5509 ft | 257 kts | 60° |
| 2026-05-06 17:05 | 39.63974 | 2.94821 | 5862 ft | 275 kts | 60° |
| 2026-05-06 17:05 | 39.64922 | 2.97016 | 6486 ft | 281 kts | 60° |
| 2026-05-06 17:06 | 39.65882 | 2.99236 | 7159 ft | 284 kts | 60° |
| 2026-05-06 17:06 | 39.66856 | 3.01491 | 7840 ft | 288 kts | 60° |
| 2026-05-06 17:06 | 39.67843 | 3.03771 | 8526 ft | 292 kts | 60° |
| 2026-05-06 17:06 | 39.68848 | 3.06094 | 9213 ft | 295 kts | 60° |
| 2026-05-06 17:07 | 39.69855 | 3.08429 | 9915 ft | 298 kts | 60° |
| 2026-05-06 17:07 | 39.70892 | 3.10835 | 10237 ft | 315 kts | 60° |
| 2026-05-06 17:07 | 39.72084 | 3.13330 | 10349 ft | 334 kts | 49° |
| 2026-05-06 17:07 | 39.73893 | 3.15309 | 10504 ft | 350 kts | 29° |
| 2026-05-06 17:08 | 39.76049 | 3.16930 | 10862 ft | 360 kts | 28° |
| 2026-05-06 17:08 | 39.78246 | 3.18538 | 11366 ft | 366 kts | 27° |
| 2026-05-06 17:08 | 39.80486 | 3.20161 | 11911 ft | 370 kts | 27° |
| 2026-05-06 17:08 | 39.82721 | 3.21777 | 12447 ft | 375 kts | 27° |
| 2026-05-06 17:09 | 39.85007 | 3.23441 | 13006 ft | 379 kts | 27° |
| 2026-05-06 17:09 | 39.87321 | 3.25136 | 13547 ft | 384 kts | 27° |
| 2026-05-06 17:09 | 39.89652 | 3.26853 | 14061 ft | 388 kts | 27° |
| 2026-05-06 17:09 | 39.92012 | 3.28597 | 14543 ft | 391 kts | 27° |
| 2026-05-06 17:10 | 39.94391 | 3.30357 | 15024 ft | 395 kts | 27° |
| 2026-05-06 17:10 | 39.96794 | 3.32137 | 15501 ft | 398 kts | 27° |
| 2026-05-06 17:10 | 39.99215 | 3.33929 | 15965 ft | 402 kts | 26° |
| 2026-05-06 17:10 | 40.01657 | 3.35735 | 16417 ft | 405 kts | 26° |
| 2026-05-06 17:11 | 40.04120 | 3.37557 | 16869 ft | 409 kts | 26° |
| 2026-05-06 17:11 | 40.06599 | 3.39393 | 17318 ft | 412 kts | 26° |
| 2026-05-06 17:11 | 40.09109 | 3.41254 | 17765 ft | 415 kts | 26° |
| 2026-05-06 17:11 | 40.11624 | 3.43123 | 18174 ft | 418 kts | 26° |
| 2026-05-06 17:12 | 40.14160 | 3.45006 | 18551 ft | 421 kts | 26° |
| 2026-05-06 17:12 | 40.16724 | 3.46909 | 18900 ft | 424 kts | 26° |
| 2026-05-06 17:12 | 40.19291 | 3.48819 | 19230 ft | 427 kts | 26° |
| 2026-05-06 17:12 | 40.21879 | 3.50747 | 19565 ft | 430 kts | 26° |
| 2026-05-06 17:13 | 40.24490 | 3.52694 | 19888 ft | 433 kts | 26° |
| 2026-05-06 17:13 | 40.27112 | 3.54650 | 20207 ft | 435 kts | 26° |
| 2026-05-06 17:13 | 40.29746 | 3.56618 | 20548 ft | 438 kts | 26° |
| 2026-05-06 17:13 | 40.32401 | 3.58602 | 20883 ft | 440 kts | 26° |
| 2026-05-06 17:14 | 40.35041 | 3.60577 | 21221 ft | 443 kts | 26° |
| 2026-05-06 17:14 | 40.37721 | 3.62584 | 21561 ft | 445 kts | 26° |
| 2026-05-06 17:14 | 40.40420 | 3.64609 | 21901 ft | 448 kts | 26° |
| 2026-05-06 17:14 | 40.43141 | 3.66651 | 22249 ft | 451 kts | 26° |
| 2026-05-06 17:15 | 40.45873 | 3.68700 | 22555 ft | 455 kts | 26° |
| 2026-05-06 17:15 | 40.48630 | 3.70772 | 22906 ft | 457 kts | 26° |
| 2026-05-06 17:15 | 40.51400 | 3.72855 | 23244 ft | 460 kts | 26° |
| 2026-05-06 17:15 | 40.54193 | 3.74956 | 23577 ft | 463 kts | 26° |
| 2026-05-06 17:16 | 40.56989 | 3.77065 | 23865 ft | 465 kts | 26° |
| 2026-05-06 17:16 | 40.59802 | 3.79190 | 24147 ft | 468 kts | 26° |
| 2026-05-06 17:16 | 40.62640 | 3.81336 | 24434 ft | 470 kts | 26° |
| 2026-05-06 17:16 | 40.65444 | 3.83457 | 24687 ft | 472 kts | 26° |
| 2026-05-06 17:17 | 40.68340 | 3.85651 | 24966 ft | 475 kts | 26° |
| 2026-05-06 17:17 | 40.71172 | 3.87798 | 25234 ft | 477 kts | 26° |
| 2026-05-06 17:17 | 40.74055 | 3.89982 | 25495 ft | 479 kts | 26° |
| 2026-05-06 17:17 | 40.76957 | 3.92183 | 25778 ft | 481 kts | 26° |
| 2026-05-06 17:18 | 40.79866 | 3.94392 | 26041 ft | 484 kts | 26° |
| 2026-05-06 17:18 | 40.82784 | 3.96612 | 26305 ft | 486 kts | 26° |
| 2026-05-06 17:18 | 40.85724 | 3.98854 | 26581 ft | 488 kts | 26° |
| 2026-05-06 17:18 | 40.88668 | 4.01102 | 26817 ft | 491 kts | 26° |
| 2026-05-06 17:19 | 40.91639 | 4.03373 | 27084 ft | 493 kts | 26° |
| 2026-05-06 17:19 | 40.94622 | 4.05653 | 27344 ft | 495 kts | 26° |
| 2026-05-06 17:19 | 40.97615 | 4.07940 | 27595 ft | 498 kts | 26° |
| 2026-05-06 17:19 | 41.00611 | 4.10229 | 27851 ft | 500 kts | 26° |
| 2026-05-06 17:20 | 41.03629 | 4.12538 | 28088 ft | 502 kts | 26° |
| 2026-05-06 17:20 | 41.06662 | 4.14861 | 28358 ft | 504 kts | 26° |
| 2026-05-06 17:20 | 41.09707 | 4.17196 | 28538 ft | 507 kts | 26° |
| 2026-05-06 17:20 | 41.12759 | 4.19540 | 28719 ft | 509 kts | 26° |
| 2026-05-06 17:21 | 41.15826 | 4.21898 | 28932 ft | 510 kts | 26° |
| 2026-05-06 17:21 | 41.18904 | 4.24269 | 29124 ft | 512 kts | 26° |
| 2026-05-06 17:21 | 41.21984 | 4.26651 | 29319 ft | 514 kts | 26° |
| 2026-05-06 17:21 | 41.25083 | 4.29050 | 29490 ft | 515 kts | 26° |
| 2026-05-06 17:22 | 41.28182 | 4.31448 | 29740 ft | 516 kts | 26° |
| 2026-05-06 17:22 | 41.31238 | 4.33814 | 29945 ft | 516 kts | 26° |
| 2026-05-06 17:22 | 41.34338 | 4.36216 | 30152 ft | 516 kts | 26° |
| 2026-05-06 17:22 | 41.37438 | 4.38624 | 30364 ft | 516 kts | 26° |
| 2026-05-06 17:23 | 41.40542 | 4.41039 | 30585 ft | 515 kts | 26° |
| 2026-05-06 17:23 | 41.43630 | 4.43444 | 30810 ft | 515 kts | 26° |
| 2026-05-06 17:23 | 41.46727 | 4.45857 | 31030 ft | 514 kts | 26° |
| 2026-05-06 17:23 | 41.49812 | 4.48261 | 31297 ft | 514 kts | 26° |
| 2026-05-06 17:24 | 41.52899 | 4.50664 | 31526 ft | 514 kts | 26° |
| 2026-05-06 17:24 | 41.55994 | 4.53074 | 31749 ft | 513 kts | 26° |
| 2026-05-06 17:24 | 41.59074 | 4.55477 | 31995 ft | 512 kts | 26° |
| 2026-05-06 17:24 | 41.62148 | 4.57879 | 32202 ft | 512 kts | 26° |
| 2026-05-06 17:25 | 41.65220 | 4.60285 | 32404 ft | 512 kts | 26° |
| 2026-05-06 17:25 | 41.68300 | 4.62702 | 32665 ft | 512 kts | 26° |
| 2026-05-06 17:25 | 41.71367 | 4.65110 | 32866 ft | 512 kts | 26° |
| 2026-05-06 17:25 | 41.74445 | 4.67531 | 33103 ft | 512 kts | 26° |
| 2026-05-06 17:26 | 41.77506 | 4.69966 | 33329 ft | 512 kts | 27° |
| 2026-05-06 17:26 | 41.80560 | 4.72420 | 33550 ft | 511 kts | 27° |
| 2026-05-06 17:26 | 41.83608 | 4.74884 | 33782 ft | 511 kts | 27° |
| 2026-05-06 17:26 | 41.86612 | 4.77318 | 33983 ft | 510 kts | 27° |
| 2026-05-06 17:27 | 41.89691 | 4.79816 | 34205 ft | 510 kts | 27° |
| 2026-05-06 17:27 | 41.92689 | 4.82239 | 34365 ft | 510 kts | 27° |
| 2026-05-06 17:27 | 41.95723 | 4.84684 | 34556 ft | 509 kts | 27° |
| 2026-05-06 17:27 | 41.98759 | 4.87130 | 34728 ft | 509 kts | 27° |
| 2026-05-06 17:28 | 42.01797 | 4.89580 | 34902 ft | 508 kts | 27° |
| 2026-05-06 17:28 | 42.04826 | 4.92035 | 35081 ft | 508 kts | 27° |
| 2026-05-06 17:28 | 42.07853 | 4.94491 | 35247 ft | 507 kts | 27° |
| 2026-05-06 17:28 | 42.10876 | 4.96949 | 35400 ft | 507 kts | 27° |
| 2026-05-06 17:29 | 42.13897 | 4.99409 | 35536 ft | 508 kts | 27° |
| 2026-05-06 17:29 | 42.16925 | 5.01872 | 35685 ft | 507 kts | 27° |
| 2026-05-06 17:29 | 42.19947 | 5.04334 | 35856 ft | 507 kts | 27° |
| 2026-05-06 17:30 | 42.25971 | 5.09250 | 35945 ft | 505 kts | 27° |
| 2026-05-06 17:30 | 42.31978 | 5.14152 | 35943 ft | 503 kts | 27° |
| 2026-05-06 17:31 | 42.36961 | 5.18230 | 35947 ft | 503 kts | 28° |
| 2026-05-06 17:31 | 42.43904 | 5.23944 | 35939 ft | 503 kts | 28° |
| 2026-05-06 17:32 | 42.49890 | 5.28872 | 35968 ft | 503 kts | 28° |
| 2026-05-06 17:32 | 42.54890 | 5.32994 | 35967 ft | 503 kts | 28° |
| 2026-05-06 17:33 | 42.60877 | 5.37937 | 35937 ft | 503 kts | 28° |
| 2026-05-06 17:33 | 42.66860 | 5.42893 | 35943 ft | 504 kts | 28° |
| 2026-05-06 17:34 | 42.72795 | 5.47825 | 35945 ft | 504 kts | 28° |
| 2026-05-06 17:34 | 42.78779 | 5.52806 | 35946 ft | 504 kts | 28° |
| 2026-05-06 17:35 | 42.84763 | 5.57800 | 35950 ft | 504 kts | 28° |
| 2026-05-06 17:35 | 42.90734 | 5.62792 | 35964 ft | 503 kts | 28° |
| 2026-05-06 17:36 | 42.99651 | 5.70275 | 35943 ft | 501 kts | 28° |
| 2026-05-06 17:36 | 43.05597 | 5.75265 | 35923 ft | 502 kts | 28° |
| 2026-05-06 17:37 | 43.11540 | 5.80286 | 35942 ft | 502 kts | 28° |
| 2026-05-06 17:37 | 43.17480 | 5.85315 | 35940 ft | 502 kts | 28° |
| 2026-05-06 17:38 | 43.23392 | 5.90307 | 35938 ft | 502 kts | 28° |
| 2026-05-06 17:38 | 43.29328 | 5.95334 | 35952 ft | 502 kts | 28° |
| 2026-05-06 17:39 | 43.35276 | 6.00371 | 35935 ft | 501 kts | 25° |
| 2026-05-06 17:39 | 43.41665 | 6.03844 | 35925 ft | 489 kts | 7° |
| 2026-05-06 17:40 | 43.48340 | 6.04928 | 35940 ft | 481 kts | 358° |
| 2026-05-06 17:40 | 43.55031 | 6.05591 | 35923 ft | 482 kts | 359° |
| 2026-05-06 17:41 | 43.61724 | 6.06287 | 35911 ft | 482 kts | 359° |
| 2026-05-06 17:41 | 43.68373 | 6.06967 | 35922 ft | 482 kts | 359° |
| 2026-05-06 17:42 | 43.75077 | 6.07807 | 35914 ft | 487 kts | 6° |
| 2026-05-06 17:42 | 43.81542 | 6.10821 | 35881 ft | 497 kts | 23° |
| 2026-05-06 17:43 | 43.87754 | 6.15078 | 35904 ft | 498 kts | 23° |
| 2026-05-06 17:43 | 43.93982 | 6.19321 | 35896 ft | 499 kts | 23° |
| 2026-05-06 17:44 | 44.00220 | 6.23578 | 35910 ft | 500 kts | 23° |
| 2026-05-06 17:44 | 44.06450 | 6.27851 | 35929 ft | 500 kts | 23° |
| 2026-05-06 17:45 | 44.12681 | 6.32137 | 35791 ft | 495 kts | 23° |
| 2026-05-06 17:45 | 44.15761 | 6.34256 | 35176 ft | 495 kts | 23° |
| 2026-05-06 17:45 | 44.18851 | 6.36382 | 34484 ft | 495 kts | 23° |
| 2026-05-06 17:46 | 44.21938 | 6.38510 | 34079 ft | 493 kts | 23° |
| 2026-05-06 17:46 | 44.24986 | 6.40613 | 33894 ft | 496 kts | 23° |
| 2026-05-06 17:46 | 44.31185 | 6.44896 | 33915 ft | 498 kts | 23° |
| 2026-05-06 17:47 | 44.37408 | 6.49221 | 33920 ft | 501 kts | 23° |
| 2026-05-06 17:47 | 44.43661 | 6.53566 | 33945 ft | 502 kts | 24° |
| 2026-05-06 17:48 | 44.49887 | 6.57914 | 33915 ft | 500 kts | 24° |
| 2026-05-06 17:48 | 44.56107 | 6.62272 | 33918 ft | 500 kts | 24° |
| 2026-05-06 17:49 | 44.62334 | 6.66622 | 33911 ft | 500 kts | 24° |
| 2026-05-06 17:49 | 44.68561 | 6.70978 | 33897 ft | 500 kts | 24° |
| 2026-05-06 17:50 | 44.74791 | 6.75353 | 33896 ft | 499 kts | 22° |
| 2026-05-06 17:50 | 44.81343 | 6.78225 | 33907 ft | 490 kts | 4° |
| 2026-05-06 17:51 | 44.88044 | 6.78524 | 33889 ft | 480 kts | 352° |
| 2026-05-06 17:51 | 44.94682 | 6.78078 | 33879 ft | 480 kts | 352° |
| 2026-05-06 17:52 | 45.01356 | 6.77646 | 33893 ft | 481 kts | 352° |
| 2026-05-06 17:52 | 45.08046 | 6.77198 | 33895 ft | 481 kts | 352° |
| 2026-05-06 17:53 | 45.14739 | 6.76754 | 33920 ft | 482 kts | 352° |
| 2026-05-06 17:53 | 45.21431 | 6.76308 | 33936 ft | 481 kts | 352° |
| 2026-05-06 17:54 | 45.28115 | 6.75864 | 33934 ft | 481 kts | 352° |
| 2026-05-06 17:54 | 45.34799 | 6.75414 | 33942 ft | 480 kts | 352° |
| 2026-05-06 17:55 | 45.41478 | 6.74966 | 33946 ft | 481 kts | 353° |
| 2026-05-06 17:55 | 45.48152 | 6.74527 | 33940 ft | 481 kts | 353° |
| 2026-05-06 17:56 | 45.54837 | 6.74076 | 33931 ft | 480 kts | 353° |
| 2026-05-06 17:56 | 45.61520 | 6.73607 | 33947 ft | 481 kts | 353° |
| 2026-05-06 17:57 | 45.68178 | 6.73161 | 33954 ft | 483 kts | 353° |
| 2026-05-06 17:57 | 45.74883 | 6.72704 | 33932 ft | 482 kts | 353° |
| 2026-05-06 17:58 | 45.81604 | 6.73417 | 33953 ft | 489 kts | 11° |
| 2026-05-06 17:58 | 45.87985 | 6.76851 | 33831 ft | 492 kts | 23° |
| 2026-05-06 17:59 | 45.91101 | 6.78896 | 33164 ft | 492 kts | 23° |
| 2026-05-06 17:59 | 45.94215 | 6.80932 | 32489 ft | 490 kts | 23° |
| 2026-05-06 17:59 | 45.97317 | 6.82953 | 31855 ft | 487 kts | 23° |
| 2026-05-06 17:59 | 46.00399 | 6.84960 | 31223 ft | 486 kts | 23° |
| 2026-05-06 18:00 | 46.03466 | 6.86963 | 30603 ft | 483 kts | 23° |
| 2026-05-06 18:00 | 46.06521 | 6.88961 | 30006 ft | 481 kts | 23° |
| 2026-05-06 18:00 | 46.09555 | 6.90949 | 29289 ft | 477 kts | 23° |
| 2026-05-06 18:00 | 46.12571 | 6.92931 | 28600 ft | 475 kts | 23° |
| 2026-05-06 18:01 | 46.15551 | 6.94896 | 27903 ft | 471 kts | 24° |
| 2026-05-06 18:01 | 46.18525 | 6.96861 | 27233 ft | 467 kts | 24° |
| 2026-05-06 18:01 | 46.21465 | 6.98805 | 26580 ft | 463 kts | 24° |
| 2026-05-06 18:01 | 46.24375 | 7.00732 | 26034 ft | 456 kts | 24° |
| 2026-05-06 18:02 | 46.27229 | 7.02627 | 25680 ft | 446 kts | 24° |
| 2026-05-06 18:02 | 46.30007 | 7.04471 | 25351 ft | 435 kts | 24° |
| 2026-05-06 18:02 | 46.32725 | 7.06278 | 25037 ft | 425 kts | 24° |
| 2026-05-06 18:02 | 46.35385 | 7.08050 | 24709 ft | 414 kts | 25° |
| 2026-05-06 18:03 | 46.37933 | 7.09746 | 24392 ft | 404 kts | 25° |
| 2026-05-06 18:03 | 46.40459 | 7.11423 | 24079 ft | 395 kts | 25° |
| 2026-05-06 18:03 | 46.42939 | 7.13069 | 23768 ft | 389 kts | 25° |
| 2026-05-06 18:03 | 46.45394 | 7.14703 | 23449 ft | 386 kts | 25° |
| 2026-05-06 18:04 | 46.47824 | 7.16324 | 23091 ft | 384 kts | 25° |
| 2026-05-06 18:04 | 46.50245 | 7.17944 | 22730 ft | 381 kts | 25° |
| 2026-05-06 18:04 | 46.52649 | 7.19557 | 22367 ft | 379 kts | 25° |
| 2026-05-06 18:04 | 46.55037 | 7.21160 | 22015 ft | 377 kts | 25° |
| 2026-05-06 18:05 | 46.57414 | 7.22756 | 21665 ft | 375 kts | 25° |
| 2026-05-06 18:05 | 46.59778 | 7.24340 | 21311 ft | 373 kts | 24° |
| 2026-05-06 18:05 | 46.62134 | 7.25918 | 20980 ft | 371 kts | 24° |
| 2026-05-06 18:05 | 46.64470 | 7.27490 | 20639 ft | 369 kts | 25° |
| 2026-05-06 18:06 | 46.66796 | 7.29060 | 20302 ft | 367 kts | 25° |
| 2026-05-06 18:06 | 46.69105 | 7.30620 | 19968 ft | 365 kts | 24° |
| 2026-05-06 18:06 | 46.71404 | 7.32172 | 19638 ft | 364 kts | 24° |
| 2026-05-06 18:06 | 46.73708 | 7.33728 | 19313 ft | 364 kts | 25° |
| 2026-05-06 18:07 | 46.75981 | 7.35264 | 18999 ft | 364 kts | 25° |
| 2026-05-06 18:07 | 46.78300 | 7.36835 | 18680 ft | 363 kts | 25° |
| 2026-05-06 18:07 | 46.80557 | 7.38362 | 18371 ft | 361 kts | 25° |
| 2026-05-06 18:07 | 46.82795 | 7.40005 | 18031 ft | 359 kts | 31° |
| 2026-05-06 18:08 | 46.84843 | 7.42059 | 17679 ft | 357 kts | 39° |
| 2026-05-06 18:08 | 46.86662 | 7.44502 | 17326 ft | 353 kts | 48° |
| 2026-05-06 18:08 | 46.88236 | 7.47252 | 16979 ft | 351 kts | 53° |
| 2026-05-06 18:08 | 46.89740 | 7.50038 | 16637 ft | 349 kts | 52° |
| 2026-05-06 18:09 | 46.91246 | 7.52810 | 16292 ft | 347 kts | 52° |
| 2026-05-06 18:09 | 46.92747 | 7.55562 | 15955 ft | 345 kts | 52° |
| 2026-05-06 18:09 | 46.94241 | 7.58303 | 15628 ft | 344 kts | 52° |
| 2026-05-06 18:09 | 46.95724 | 7.61033 | 15307 ft | 343 kts | 52° |
| 2026-05-06 18:10 | 46.97205 | 7.63767 | 14979 ft | 342 kts | 52° |
| 2026-05-06 18:10 | 46.98679 | 7.66490 | 14651 ft | 340 kts | 52° |
| 2026-05-06 18:10 | 47.00144 | 7.69203 | 14325 ft | 338 kts | 52° |
| 2026-05-06 18:10 | 47.01600 | 7.71901 | 14017 ft | 337 kts | 51° |
| 2026-05-06 18:11 | 47.03051 | 7.74585 | 13699 ft | 335 kts | 51° |
| 2026-05-06 18:11 | 47.04012 | 7.76361 | 13469 ft | 334 kts | 51° |
| 2026-05-06 18:11 | 47.05934 | 7.79922 | 12980 ft | 332 kts | 51° |
| 2026-05-06 18:11 | 47.07363 | 7.82581 | 12653 ft | 331 kts | 51° |
| 2026-05-06 18:12 | 47.08771 | 7.85208 | 12314 ft | 325 kts | 51° |
| 2026-05-06 18:12 | 47.10159 | 7.87800 | 11977 ft | 320 kts | 51° |
| 2026-05-06 18:12 | 47.11529 | 7.90353 | 11643 ft | 317 kts | 51° |
| 2026-05-06 18:12 | 47.12880 | 7.92893 | 11319 ft | 316 kts | 53° |
| 2026-05-06 18:13 | 47.14035 | 7.95632 | 10993 ft | 315 kts | 63° |
| 2026-05-06 18:13 | 47.14965 | 7.98533 | 10669 ft | 313 kts | 65° |
| 2026-05-06 18:13 | 47.15874 | 8.01392 | 10346 ft | 312 kts | 65° |
| 2026-05-06 18:13 | 47.16804 | 8.04301 | 10033 ft | 310 kts | 64° |
| 2026-05-06 18:14 | 47.17721 | 8.07164 | 9704 ft | 309 kts | 64° |
| 2026-05-06 18:14 | 47.18623 | 8.09980 | 9362 ft | 308 kts | 64° |
| 2026-05-06 18:14 | 47.19528 | 8.12815 | 9021 ft | 306 kts | 64° |
| 2026-05-06 18:14 | 47.20470 | 8.15613 | 8814 ft | 305 kts | 56° |
| 2026-05-06 18:15 | 47.21816 | 8.17974 | 8600 ft | 301 kts | 38° |
| 2026-05-06 18:15 | 47.23553 | 8.19646 | 8396 ft | 297 kts | 21° |
| 2026-05-06 18:15 | 47.25501 | 8.20522 | 8188 ft | 290 kts | 4° |
| 2026-05-06 18:15 | 47.27492 | 8.20582 | 7976 ft | 284 kts | 348° |
| 2026-05-06 18:16 | 47.29377 | 8.19872 | 7778 ft | 278 kts | 333° |
| 2026-05-06 18:16 | 47.31101 | 8.18621 | 7581 ft | 275 kts | 328° |
| 2026-05-06 18:16 | 47.32799 | 8.17347 | 7380 ft | 274 kts | 329° |
| 2026-05-06 18:16 | 47.34498 | 8.16081 | 7173 ft | 273 kts | 329° |
| 2026-05-06 18:17 | 47.36200 | 8.14813 | 6982 ft | 273 kts | 329° |
| 2026-05-06 18:17 | 47.37894 | 8.13548 | 6988 ft | 273 kts | 329° |
| 2026-05-06 18:17 | 47.39565 | 8.12297 | 6993 ft | 263 kts | 329° |
| 2026-05-06 18:17 | 47.41160 | 8.11111 | 6997 ft | 253 kts | 328° |
| 2026-05-06 18:18 | 47.42708 | 8.09954 | 7000 ft | 251 kts | 328° |
| 2026-05-06 18:18 | 47.44245 | 8.08803 | 7005 ft | 251 kts | 328° |
| 2026-05-06 18:18 | 47.45806 | 8.07631 | 6999 ft | 251 kts | 328° |
| 2026-05-06 18:18 | 47.47430 | 8.06586 | 6999 ft | 255 kts | 342° |
| 2026-05-06 18:19 | 47.49198 | 8.06474 | 7005 ft | 263 kts | 7° |
| 2026-05-06 18:19 | 47.50920 | 8.07519 | 7005 ft | 270 kts | 34° |
| 2026-05-06 18:19 | 47.52178 | 8.09542 | 7015 ft | 275 kts | 60° |
| 2026-05-06 18:19 | 47.52989 | 8.12114 | 7003 ft | 277 kts | 65° |
| 2026-05-06 18:20 | 47.53773 | 8.14725 | 7011 ft | 278 kts | 65° |
| 2026-05-06 18:20 | 47.54561 | 8.17339 | 7002 ft | 278 kts | 65° |
| 2026-05-06 18:20 | 47.55343 | 8.19925 | 6995 ft | 278 kts | 66° |
| 2026-05-06 18:20 | 47.56126 | 8.22517 | 6709 ft | 276 kts | 65° |
| 2026-05-06 18:21 | 47.56920 | 8.25149 | 6120 ft | 285 kts | 65° |
| 2026-05-06 18:21 | 47.57461 | 8.26944 | 5676 ft | 290 kts | 65° |
| 2026-05-06 18:21 | 47.58270 | 8.29626 | 5140 ft | 280 kts | 65° |
| 2026-05-06 18:21 | 47.59050 | 8.32214 | 4634 ft | 271 kts | 65° |
| 2026-05-06 18:22 | 47.59667 | 8.34797 | 4126 ft | 261 kts | 85° |
| 2026-05-06 18:22 | 47.59480 | 8.37333 | 3991 ft | 241 kts | 114° |
| 2026-05-06 18:22 | 47.58625 | 8.39329 | 4015 ft | 221 kts | 139° |
| 2026-05-06 18:22 | 47.57553 | 8.40847 | 3920 ft | 210 kts | 144° |
| 2026-05-06 18:23 | 47.56488 | 8.42280 | 3703 ft | 204 kts | 143° |
| 2026-05-06 18:23 | 47.55450 | 8.43693 | 3443 ft | 201 kts | 143° |
| 2026-05-06 18:23 | 47.54440 | 8.45077 | 3192 ft | 192 kts | 142° |
| 2026-05-06 18:23 | 47.53506 | 8.46361 | 2919 ft | 175 kts | 142° |
| 2026-05-06 18:24 | 47.52649 | 8.47536 | 2692 ft | 163 kts | 143° |
| 2026-05-06 18:24 | 47.51831 | 8.48654 | 2466 ft | 157 kts | 141° |
| 2026-05-06 18:24 | 47.51041 | 8.49733 | 2227 ft | 156 kts | 140° |
| 2026-05-06 18:24 | 47.50264 | 8.50791 | 2049 ft | 150 kts | 140° |
| 2026-05-06 18:25 | 47.49513 | 8.51859 | 1782 ft | 150 kts | 138° |
| 2026-05-06 18:25 | 47.48755 | 8.52893 | 1585 ft | 148 kts | 140° |
| 2026-05-06 18:25 | 47.47996 | 8.53922 | 1417 ft | 148 kts | 143° |
| 2026-05-06 18:25 | 47.47277 | 8.54864 | 1410 ft | 114 kts | 138° |
| 2026-05-06 18:26 | 47.46847 | 8.55475 | 1410 ft | 46 kts | 135° |
| 2026-05-06 18:26 | 47.46648 | 8.55666 | 1404 ft | 27 kts | 165° |
| 2026-05-06 18:26 | 47.46484 | 8.55724 | 1400 ft | 15 kts | 166° |
| 2026-05-06 18:26 | 47.46392 | 8.55766 | 1404 ft | 12 kts | 145° |
| 2026-05-06 18:27 | 47.46331 | 8.55829 | 1403 ft | 10 kts | 142° |
| 2026-05-06 18:27 | 47.46249 | 8.55934 | 1401 ft | 20 kts | 136° |
| 2026-05-06 18:27 | 47.46177 | 8.56002 | 1402 ft | 10 kts | 176° |
| 2026-05-06 18:27 | 47.46060 | 8.55989 | 1397 ft | 26 kts | 185° |
| 2026-05-06 18:28 | 47.45888 | 8.55949 | 1407 ft | 21 kts | 208° |
| 2026-05-06 18:28 | 47.45764 | 8.55876 | 1406 ft | 17 kts | 188° |
| 2026-05-06 18:28 | 47.45649 | 8.55858 | 1400 ft | 17 kts | 185° |
| 2026-05-06 18:28 | 47.45545 | 8.55843 | 1397 ft | 14 kts | 186° |
| 2026-05-06 18:29 | 47.45493 | 8.55778 | 1407 ft | 9 kts | 271° |
| 2026-05-06 18:29 | 47.45507 | 8.55695 | 1405 ft | 8 kts | 286° |
| 2026-05-06 18:29 | 47.45516 | 8.55631 | 1399 ft | 4 kts | 279° |
| 2026-05-06 18:29 | 47.45512 | 8.55604 | 1397 ft | 9 kts | 245° |
| 2026-05-06 18:30 | 47.45453 | 8.55575 | 1397 ft | 4 kts | 192° |
| 2026-05-06 18:30 | 47.45440 | 8.55572 | 1397 ft | 3 kts | 188° |
| 2026-05-06 18:30 | 47.45438 | 8.55571 | 1397 ft | 0 kts | 188° |